Flag for China

Past Weather in Tianjin, Tianjin Municipality, China — Yesterday and Last 2 Weeks

Currently: 34 °F. Haze. (Weather station: Tianjin / Zhangguizhu, China). See more current weather

Past Weather in Tianjin — Graph

°F

Tianjin Temperature Yesterday

Maximum temperature yesterday: 41 °F (at 2:30 pm)
Minimum temperature yesterday: 19 °F (at 6:00 am)
Average temperature yesterday: 30 °F

High & Low Weather Summary for the Past Weeks

 TemperatureHumidityPressure
High48 °F (Jan 13, 12:30 pm)93% (Jan 14, 12:00 am)30.60 "Hg (Jan 14, 12:00 am)
Low14 °F (Jan 16, 5:00 am)13% (Jan 16, 4:00 pm)29.74 "Hg (Jan 12, 9:30 pm)
Average29 °F54%30.23 "Hg
* Reported Jan 10 8:00 am — Jan 25 8:00 am, Tianjin. Weather by CustomWeather, © 2021

Note: Actual official high and low records may vary slightly from our data, if they occured in-between our weather recording intervals... More about our weather records

Tianjin Weather History for the Previous 24 Hours

Scroll right to see more
 ConditionsComfort  
Time TempWeatherWind HumidityBarometerVisibility
8:00 am
Mon, Jan 25
30 °FHaze.6 mph75%30.33 "Hg2 mi
7:30 am30 °FHaze.1 mph69%30.33 "Hg2 mi
7:00 am32 °FHaze.No wind64%30.33 "Hg2 mi
6:30 am32 °FHaze.3 mph69%30.30 "Hg2 mi
6:00 am32 °FHaze.1 mph64%30.30 "Hg2 mi
5:30 am30 °FHaze.3 mph75%30.30 "Hg2 mi
5:00 am32 °FHaze.1 mph64%30.33 "Hg2 mi
4:30 am30 °FIce fog.3 mph69%30.30 "Hg2 mi
4:00 am28 °FIce fog.1 mph74%30.30 "Hg2 mi
3:30 am30 °FIce fog.1 mph64%30.33 "Hg2 mi
3:00 am28 °FIce fog.1 mph74%30.36 "Hg2 mi
2:30 am27 °FIce fog.1 mph80%30.36 "Hg2 mi
2:00 am28 °FHaze.1 mph69%30.36 "Hg2 mi
1:30 am30 °FHaze.3 mph69%30.39 "Hg2 mi
1:00 am30 °FHaze.1 mph69%30.36 "Hg2 mi
12:30 am30 °FHaze.1 mph69%30.36 "Hg2 mi
12:00 am30 °FHaze.No wind69%30.36 "Hg2 mi
11:30 pm
Sun, Jan 24
30 °FHaze.No wind69%30.36 "Hg2 mi
11:00 pm30 °FHaze.No wind69%30.36 "Hg2 mi
10:30 pm30 °FHaze.3 mph75%30.36 "Hg2 mi
10:00 pm30 °FHaze.1 mph75%30.36 "Hg2 mi
9:30 pm30 °FHaze.No wind69%30.36 "Hg2 mi
9:00 pm30 °FHaze.No wind75%30.36 "Hg2 mi
8:30 pm30 °FHaze.1 mph69%30.36 "Hg2 mi
8:00 pm32 °FHaze.1 mph64%30.33 "Hg2 mi
7:30 pm34 °FHaze.3 mph60%30.33 "Hg2 mi
7:00 pm34 °FHaze.3 mph56%30.33 "Hg2 mi
6:30 pm34 °FHaze.3 mph56%30.33 "Hg2 mi
6:00 pm34 °FHaze.1 mph56%30.30 "Hg2 mi
5:30 pm36 °FHaze.3 mph48%30.30 "Hg2 mi
5:00 pm37 °FHaze.3 mph48%30.30 "Hg2 mi
4:30 pm39 °FHaze.1 mph45%30.30 "Hg2 mi
4:00 pm41 °FHaze.3 mph39%30.30 "Hg2 mi
3:30 pm41 °FHaze.1 mph42%30.27 "Hg2 mi
3:00 pm39 °FHaze.1 mph45%30.27 "Hg2 mi
2:30 pm41 °FHaze.1 mph42%30.30 "Hg2 mi
2:00 pm39 °FHaze.1 mph45%30.30 "Hg2 mi
1:30 pm39 °FHaze.1 mph45%30.30 "Hg2 mi
1:00 pm39 °FHaze.1 mph48%30.33 "Hg2 mi
12:30 pm39 °FHaze.1 mph48%30.33 "Hg2 mi
12:00 pm37 °FHaze.3 mph52%30.33 "Hg2 mi
11:30 am37 °FHaze.3 mph52%30.33 "Hg2 mi
11:00 am36 °FHaze.1 mph56%30.33 "Hg2 mi
10:30 am34 °FHaze.1 mph65%30.33 "Hg2 mi
10:00 am30 °FHaze.No wind75%30.33 "Hg2 mi
9:30 am28 °FIce fog.1 mph80%30.33 "Hg2 mi
Weather by CustomWeather, © 2021

See weather overview